Stockerau, Austria
Current Conditions -  °F | °C
As of 5:50 PM on Monday 24 Nov 2014 (Local Time) from LOXT Reporting Station
Broken Clouds Broken Clouds  
Wind Chill: 35°   Ceiling: 1000
Heat Index: 41°   Visibility: 4mi
Dew Point: 37°   Wind: 10mph
Humidity: 87%   Direction: 120°ESE
Pressure: 30.27"   Gusts: NA
Location:  48.39°N, 16.23°E
Report Text: LOXT 241550Z 12009KT 7000 BKN010ST 05/03 Q1025 RMK OVC
Loading
Personal Weather Stations






























Interactive Weather Map New forecast layout! Learn more

10-Day Weather Forecast

Advertisements
Track Severe Weather on mobile